Tropical Cyclones
[Index]
Main Index Home Page Stock Weather Photos Extreme Storms Discussion Storm News and Storm Chasing Reports Tropical Cyclones / Hurricanes / Typhoons Weather Data and Links Wild Fires / Bushfires Weather Observation Techniques Weather Picture Catalogue Tornado Pictures and Reports Stock Video Footage and DVDs for sale
Season 2001-2002 Tropical Cyclone HARY Track Map
Season 2001-2002 Summaries (Operational Data): [AU] [SIO] [SPAC] [SH]
<<- Previous TC | 2001-2002 Season | Next TC ->>

click for intensity scale information  Lat/long Grid: Show Hide

 Date Labels: Show Hide

Operational Tropical Cyclone Data : JTWC Advisories

Name: HARY
Number: 0218

05 Mar 2002 06:00 UTC to 15 Mar 2002 12:00 UTC

    date/time    lat    long     hPa   cat  kts
2002-03-05 06   10.9    66.6    1003         25          
2002-03-05 12   11.2    66.2    1002         25          
2002-03-05 18   11.0    65.3     999         30          
2002-03-06 00   11.3    64.0     999         30          
2002-03-06 06   11.2    63.2     995    1    35          
2002-03-06 12   11.3    62.5     995    1    35          
2002-03-06 18   11.4    61.0     991    1    40          
2002-03-07 00   11.4    59.6     986    1    45          
2002-03-07 06   11.2    58.6     984    2    50          
2002-03-07 12   11.2    57.2     976    2    60          
2002-03-07 18   11.5    56.5     974    2    60          
2002-03-08 00   11.5    55.2     950    3    85          
2002-03-08 06   11.2    54.2     935    4    95          
2002-03-08 12   11.4    53.6     930    4    95          
2002-03-08 18   11.3    52.8     915    5   110          
2002-03-09 00   11.7    52.7     915    5   110          
2002-03-09 06   12.4    52.2     920    5   110          
2002-03-09 12   13.4    51.7     930    4   100          
2002-03-09 18   14.2    51.1     910    5   115          
2002-03-10 00   14.8    50.7     905    5   120          
2002-03-10 06   15.4    50.4     915    5   110          
2002-03-10 12   16.2    50.4     930    4    95          
2002-03-10 18   17.0    50.6     940    4    90          
2002-03-11 00   18.1    50.7     945    3    85          
2002-03-11 06   19.3    50.8     945    3    85          
2002-03-11 12   20.7    51.6     945    3    85          
2002-03-11 18   22.3    52.4     945    3    85          
2002-03-12 00   23.5    53.0     945    3    85          
2002-03-12 06   24.8    53.8     945    3    85          
2002-03-12 12   26.2    54.7     945    3    85          
2002-03-12 18   27.6    55.7     950    3    85          
2002-03-13 00   28.8    56.7     968    3    70          
2002-03-13 06   29.1    56.8     980    2    55          
2002-03-13 12   29.7    57.0     980    2    60          
2002-03-13 18   30.0    58.3     980    2    60          
2002-03-14 00   30.3    58.4     985    2    55          
2002-03-14 06   30.9    58.7     985    2    55          
2002-03-14 12   31.1    59.5     985    2    50          
2002-03-14 18   32.1    60.6     985    2    50          
2002-03-15 00   32.1    61.2     985    2    50          
2002-03-15 06   32.2    61.6     985    1    40          
2002-03-15 12   32.5    63.3     980    1    35          
Winds are 10-min average.

Tropical cyclone tracks developed by Michael Bath using operational warnings and advisories and Google Maps.


[Australian Severe Weather index] [Copyright Notice] [Email Contacts] [Search This Site] [Privacy Policy]
Document: tropical_cyclone_hary.htm Updated: 28 May 2013